sensor_id;sensor_type;location;lat;lon;timestamp;pressure;altitude;pressure_sealevel;temperature;humidity
52693;BME280;68218;51.012;-1.648;2023-07-29T00:00:43;99698.00;;;16.13;94.85
52693;BME280;68218;51.012;-1.648;2023-07-29T00:03:09;99691.97;;;16.25;95.83
52693;BME280;68218;51.012;-1.648;2023-07-29T00:05:36;99689.25;;;16.25;94.72
52693;BME280;68218;51.012;-1.648;2023-07-29T00:08:01;99688.28;;;16.29;94.82
52693;BME280;68218;51.012;-1.648;2023-07-29T00:10:27;99680.81;;;16.35;95.29
52693;BME280;68218;51.012;-1.648;2023-07-29T00:12:52;99688.66;;;16.37;95.57
52693;BME280;68218;51.012;-1.648;2023-07-29T00:15:18;99680.00;;;16.35;94.93
52693;BME280;68218;51.012;-1.648;2023-07-29T00:17:43;99680.94;;;16.30;94.44
52693;BME280;68218;51.012;-1.648;2023-07-29T00:20:09;99684.94;;;16.33;95.51
52693;BME280;68218;51.012;-1.648;2023-07-29T00:22:34;99689.16;;;16.39;95.44
52693;BME280;68218;51.012;-1.648;2023-07-29T00:24:59;99693.47;;;16.40;95.61
52693;BME280;68218;51.012;-1.648;2023-07-29T00:27:25;99677.63;;;16.42;94.97
52693;BME280;68218;51.012;-1.648;2023-07-29T00:29:51;99678.28;;;16.47;95.56
52693;BME280;68218;51.012;-1.648;2023-07-29T00:32:16;99673.44;;;16.36;93.96
52693;BME280;68218;51.012;-1.648;2023-07-29T00:34:42;99666.25;;;16.40;94.68
52693;BME280;68218;51.012;-1.648;2023-07-29T00:37:07;99664.78;;;16.34;94.46
52693;BME280;68218;51.012;-1.648;2023-07-29T00:39:33;99664.47;;;16.35;95.72
52693;BME280;68218;51.012;-1.648;2023-07-29T00:41:58;99660.13;;;16.25;95.48
52693;BME280;68218;51.012;-1.648;2023-07-29T00:44:24;99661.44;;;16.28;95.43
52693;BME280;68218;51.012;-1.648;2023-07-29T00:46:51;99667.03;;;16.32;95.96
52693;BME280;68218;51.012;-1.648;2023-07-29T00:49:18;99664.31;;;16.32;95.60
52693;BME280;68218;51.012;-1.648;2023-07-29T00:51:44;99660.47;;;16.33;95.83
52693;BME280;68218;51.012;-1.648;2023-07-29T00:54:10;99655.00;;;16.33;96.14
52693;BME280;68218;51.012;-1.648;2023-07-29T00:56:35;99653.44;;;16.32;96.02
52693;BME280;68218;51.012;-1.648;2023-07-29T00:59:01;99641.41;;;16.33;96.23
52693;BME280;68218;51.012;-1.648;2023-07-29T01:01:31;99642.84;;;16.30;94.97
52693;BME280;68218;51.012;-1.648;2023-07-29T01:03:57;99646.06;;;16.32;95.92
52693;BME280;68218;51.012;-1.648;2023-07-29T01:09:15;99642.53;;;16.32;95.13
52693;BME280;68218;51.012;-1.648;2023-07-29T01:15:21;99644.44;;;16.31;95.69
52693;BME280;68218;51.012;-1.648;2023-07-29T01:17:55;99649.56;;;16.33;96.16
52693;BME280;68218;51.012;-1.648;2023-07-29T01:20:21;99650.06;;;16.35;95.92
52693;BME280;68218;51.012;-1.648;2023-07-29T01:22:49;99638.53;;;16.29;96.41
52693;BME280;68218;51.012;-1.648;2023-07-29T01:25:14;99653.13;;;16.33;95.89
52693;BME280;68218;51.012;-1.648;2023-07-29T01:27:42;99661.44;;;16.37;96.60
52693;BME280;68218;51.012;-1.648;2023-07-29T01:30:08;99651.03;;;16.30;95.66
52693;BME280;68218;51.012;-1.648;2023-07-29T01:32:53;99642.72;;;16.35;95.91
52693;BME280;68218;51.012;-1.648;2023-07-29T01:35:33;99632.63;;;16.36;96.18
52693;BME280;68218;51.012;-1.648;2023-07-29T01:38:13;99624.28;;;16.32;95.89
52693;BME280;68218;51.012;-1.648;2023-07-29T01:40:39;99630.66;;;16.27;96.15
52693;BME280;68218;51.012;-1.648;2023-07-29T01:43:05;99625.50;;;16.17;96.13
52693;BME280;68218;51.012;-1.648;2023-07-29T01:45:33;99626.19;;;16.23;97.21
52693;BME280;68218;51.012;-1.648;2023-07-29T01:48:05;99630.03;;;16.22;96.89
52693;BME280;68218;51.012;-1.648;2023-07-29T01:50:31;99624.22;;;16.06;96.42
52693;BME280;68218;51.012;-1.648;2023-07-29T01:52:57;99627.88;;;16.01;97.02
52693;BME280;68218;51.012;-1.648;2023-07-29T01:55:23;99626.41;;;16.04;96.70
52693;BME280;68218;51.012;-1.648;2023-07-29T01:57:48;99635.72;;;16.03;96.82
52693;BME280;68218;51.012;-1.648;2023-07-29T02:00:15;99633.97;;;16.07;96.72
52693;BME280;68218;51.012;-1.648;2023-07-29T02:02:41;99632.41;;;16.15;97.32
52693;BME280;68218;51.012;-1.648;2023-07-29T02:05:06;99629.34;;;16.07;97.28
52693;BME280;68218;51.012;-1.648;2023-07-29T02:07:32;99621.34;;;16.11;98.24
52693;BME280;68218;51.012;-1.648;2023-07-29T02:09:57;99625.19;;;16.10;97.09
52693;BME280;68218;51.012;-1.648;2023-07-29T02:12:23;99624.53;;;16.04;96.84
52693;BME280;68218;51.012;-1.648;2023-07-29T02:14:49;99618.38;;;15.90;96.77
52693;BME280;68218;51.012;-1.648;2023-07-29T02:17:14;99616.94;;;15.93;97.10
52693;BME280;68218;51.012;-1.648;2023-07-29T02:19:39;99612.78;;;15.95;97.00
52693;BME280;68218;51.012;-1.648;2023-07-29T02:22:05;99620.94;;;15.95;96.94
52693;BME280;68218;51.012;-1.648;2023-07-29T02:24:30;99623.94;;;15.85;96.86
52693;BME280;68218;51.012;-1.648;2023-07-29T02:26:56;99633.75;;;15.95;97.40
52693;BME280;68218;51.012;-1.648;2023-07-29T02:29:21;99629.75;;;15.92;97.64
52693;BME280;68218;51.012;-1.648;2023-07-29T02:31:47;99627.34;;;15.90;97.71
52693;BME280;68218;51.012;-1.648;2023-07-29T02:34:13;99623.84;;;15.99;97.14
52693;BME280;68218;51.012;-1.648;2023-07-29T02:36:38;99623.03;;;15.98;96.89
52693;BME280;68218;51.012;-1.648;2023-07-29T02:39:04;99609.94;;;16.00;97.63
52693;BME280;68218;51.012;-1.648;2023-07-29T02:41:29;99625.31;;;16.05;97.02
52693;BME280;68218;51.012;-1.648;2023-07-29T02:43:54;99618.41;;;15.99;96.85
52693;BME280;68218;51.012;-1.648;2023-07-29T02:46:20;99618.78;;;16.06;97.30
52693;BME280;68218;51.012;-1.648;2023-07-29T02:48:45;99617.47;;;16.03;97.06
52693;BME280;68218;51.012;-1.648;2023-07-29T02:51:11;99610.75;;;16.01;97.21
52693;BME280;68218;51.012;-1.648;2023-07-29T02:53:36;99614.88;;;15.98;97.62
52693;BME280;68218;51.012;-1.648;2023-07-29T02:56:03;99607.81;;;15.88;97.85
52693;BME280;68218;51.012;-1.648;2023-07-29T02:58:29;99614.03;;;15.80;97.27
52693;BME280;68218;51.012;-1.648;2023-07-29T03:01:03;99612.94;;;15.90;98.51
52693;BME280;68218;51.012;-1.648;2023-07-29T03:03:29;99612.28;;;15.84;98.11
52693;BME280;68218;51.012;-1.648;2023-07-29T03:06:01;99614.16;;;15.75;97.57
52693;BME280;68218;51.012;-1.648;2023-07-29T03:08:27;99607.44;;;15.81;97.40
52693;BME280;68218;51.012;-1.648;2023-07-29T03:10:54;99590.75;;;15.74;97.38
52693;BME280;68218;51.012;-1.648;2023-07-29T03:13:19;99590.66;;;15.79;98.34
52693;BME280;68218;51.012;-1.648;2023-07-29T03:15:45;99595.00;;;15.80;98.83
52693;BME280;68218;51.012;-1.648;2023-07-29T03:18:10;99598.81;;;15.79;97.71
52693;BME280;68218;51.012;-1.648;2023-07-29T03:20:35;99594.53;;;15.87;98.83
52693;BME280;68218;51.012;-1.648;2023-07-29T03:23:01;99592.41;;;15.75;98.95
52693;BME280;68218;51.012;-1.648;2023-07-29T03:25:26;99594.03;;;15.85;99.17
52693;BME280;68218;51.012;-1.648;2023-07-29T03:27:52;99593.72;;;15.86;99.06
52693;BME280;68218;51.012;-1.648;2023-07-29T03:30:21;99597.56;;;15.85;98.80
52693;BME280;68218;51.012;-1.648;2023-07-29T03:32:48;99599.44;;;15.76;98.36
52693;BME280;68218;51.012;-1.648;2023-07-29T03:35:14;99584.75;;;15.77;98.46
52693;BME280;68218;51.012;-1.648;2023-07-29T03:37:40;99591.13;;;15.81;98.45
52693;BME280;68218;51.012;-1.648;2023-07-29T03:40:06;99586.97;;;15.75;98.11
52693;BME280;68218;51.012;-1.648;2023-07-29T03:42:32;99590.19;;;15.77;98.59
52693;BME280;68218;51.012;-1.648;2023-07-29T03:44:57;99588.97;;;15.69;98.53
52693;BME280;68218;51.012;-1.648;2023-07-29T03:47:23;99594.00;;;15.76;98.54
52693;BME280;68218;51.012;-1.648;2023-07-29T03:49:48;99594.22;;;15.66;99.13
52693;BME280;68218;51.012;-1.648;2023-07-29T03:52:14;99587.69;;;15.67;98.07
52693;BME280;68218;51.012;-1.648;2023-07-29T03:54:39;99581.34;;;15.71;98.80
52693;BME280;68218;51.012;-1.648;2023-07-29T03:57:05;99585.53;;;15.78;98.83
52693;BME280;68218;51.012;-1.648;2023-07-29T03:59:30;99582.91;;;15.72;97.78
52693;BME280;68218;51.012;-1.648;2023-07-29T04:01:56;99593.00;;;15.72;98.24
52693;BME280;68218;51.012;-1.648;2023-07-29T04:04:21;99582.81;;;15.78;98.34
52693;BME280;68218;51.012;-1.648;2023-07-29T04:06:46;99608.81;;;15.70;98.73
52693;BME280;68218;51.012;-1.648;2023-07-29T04:09:12;99604.75;;;15.59;99.38
52693;BME280;68218;51.012;-1.648;2023-07-29T04:11:38;99600.31;;;15.63;99.46
52693;BME280;68218;51.012;-1.648;2023-07-29T04:14:03;99603.88;;;15.72;99.72
52693;BME280;68218;51.012;-1.648;2023-07-29T04:16:29;99604.50;;;15.69;100.00
52693;BME280;68218;51.012;-1.648;2023-07-29T04:18:54;99605.75;;;15.63;100.00
52693;BME280;68218;51.012;-1.648;2023-07-29T04:21:20;99604.66;;;15.72;100.00
52693;BME280;68218;51.012;-1.648;2023-07-29T04:23:45;99597.84;;;15.75;99.51
52693;BME280;68218;51.012;-1.648;2023-07-29T04:26:11;99600.81;;;15.65;99.51
52693;BME280;68218;51.012;-1.648;2023-07-29T04:28:36;99599.44;;;15.76;99.67
52693;BME280;68218;51.012;-1.648;2023-07-29T04:31:01;99603.88;;;15.41;100.00
52693;BME280;68218;51.012;-1.648;2023-07-29T04:33:29;99607.13;;;15.51;100.00
52693;BME280;68218;51.012;-1.648;2023-07-29T04:35:54;99596.47;;;15.64;100.00
52693;BME280;68218;51.012;-1.648;2023-07-29T04:38:20;99592.69;;;15.73;100.00
52693;BME280;68218;51.012;-1.648;2023-07-29T04:40:45;99601.94;;;15.72;99.39
52693;BME280;68218;51.012;-1.648;2023-07-29T04:43:11;99609.06;;;15.82;99.89
52693;BME280;68218;51.012;-1.648;2023-07-29T04:45:36;99613.38;;;15.83;100.00
52693;BME280;68218;51.012;-1.648;2023-07-29T04:48:07;99606.84;;;15.84;100.00
52693;BME280;68218;51.012;-1.648;2023-07-29T04:50:32;99613.25;;;15.88;99.96
52693;BME280;68218;51.012;-1.648;2023-07-29T04:52:57;99609.28;;;15.95;100.00
52693;BME280;68218;51.012;-1.648;2023-07-29T04:55:23;99599.56;;;16.02;99.98
52693;BME280;68218;51.012;-1.648;2023-07-29T04:57:48;99601.94;;;16.04;99.47
52693;BME280;68218;51.012;-1.648;2023-07-29T05:00:14;99602.94;;;16.08;99.36
52693;BME280;68218;51.012;-1.648;2023-07-29T05:02:39;99600.69;;;16.10;98.92
52693;BME280;68218;51.012;-1.648;2023-07-29T05:05:05;99600.19;;;15.99;99.32
52693;BME280;68218;51.012;-1.648;2023-07-29T05:07:30;99596.91;;;15.88;100.00
52693;BME280;68218;51.012;-1.648;2023-07-29T05:09:55;99586.41;;;15.96;100.00
52693;BME280;68218;51.012;-1.648;2023-07-29T05:12:21;99594.25;;;15.97;100.00
52693;BME280;68218;51.012;-1.648;2023-07-29T05:14:46;99599.84;;;15.92;100.00
52693;BME280;68218;51.012;-1.648;2023-07-29T05:17:11;99596.44;;;15.86;100.00
52693;BME280;68218;51.012;-1.648;2023-07-29T05:19:37;99601.91;;;15.95;100.00
52693;BME280;68218;51.012;-1.648;2023-07-29T05:22:02;99607.22;;;16.00;100.00
52693;BME280;68218;51.012;-1.648;2023-07-29T05:24:28;99603.69;;;16.00;100.00
52693;BME280;68218;51.012;-1.648;2023-07-29T05:26:53;99606.22;;;15.87;100.00
52693;BME280;68218;51.012;-1.648;2023-07-29T05:29:19;99608.47;;;15.94;100.00
52693;BME280;68218;51.012;-1.648;2023-07-29T05:31:44;99610.72;;;15.92;100.00
52693;BME280;68218;51.012;-1.648;2023-07-29T05:34:09;99606.38;;;15.91;100.00
52693;BME280;68218;51.012;-1.648;2023-07-29T05:36:35;99615.03;;;15.93;100.00
52693;BME280;68218;51.012;-1.648;2023-07-29T05:39:00;99613.78;;;15.99;100.00
52693;BME280;68218;51.012;-1.648;2023-07-29T05:41:25;99618.53;;;15.94;100.00
52693;BME280;68218;51.012;-1.648;2023-07-29T05:43:53;99611.38;;;15.98;100.00
52693;BME280;68218;51.012;-1.648;2023-07-29T05:46:18;99606.56;;;15.95;100.00
52693;BME280;68218;51.012;-1.648;2023-07-29T05:48:44;99607.53;;;15.99;100.00
52693;BME280;68218;51.012;-1.648;2023-07-29T05:51:09;99608.47;;;15.94;100.00
52693;BME280;68218;51.012;-1.648;2023-07-29T05:53:34;99606.13;;;16.10;100.00
52693;BME280;68218;51.012;-1.648;2023-07-29T05:56:00;99591.72;;;16.01;100.00
52693;BME280;68218;51.012;-1.648;2023-07-29T05:58:25;99593.75;;;15.95;100.00
52693;BME280;68218;51.012;-1.648;2023-07-29T06:00:51;99601.47;;;16.02;100.00
52693;BME280;68218;51.012;-1.648;2023-07-29T06:03:16;99610.22;;;15.90;99.30
52693;BME280;68218;51.012;-1.648;2023-07-29T06:05:41;99616.38;;;16.04;100.00
52693;BME280;68218;51.012;-1.648;2023-07-29T06:08:07;99619.28;;;16.17;100.00
52693;BME280;68218;51.012;-1.648;2023-07-29T06:10:34;99614.78;;;16.12;99.91
52693;BME280;68218;51.012;-1.648;2023-07-29T06:12:59;99625.69;;;16.21;100.00
52693;BME280;68218;51.012;-1.648;2023-07-29T06:15:25;99618.03;;;16.23;100.00
52693;BME280;68218;51.012;-1.648;2023-07-29T06:17:50;99616.25;;;16.18;100.00
52693;BME280;68218;51.012;-1.648;2023-07-29T06:20:16;99610.47;;;16.11;99.83
52693;BME280;68218;51.012;-1.648;2023-07-29T06:22:41;99613.34;;;16.06;100.00
52693;BME280;68218;51.012;-1.648;2023-07-29T06:25:08;99614.00;;;16.20;100.00
52693;BME280;68218;51.012;-1.648;2023-07-29T06:27:33;99617.22;;;16.22;100.00
52693;BME280;68218;51.012;-1.648;2023-07-29T06:29:59;99615.47;;;16.26;100.00
52693;BME280;68218;51.012;-1.648;2023-07-29T06:32:24;99622.19;;;16.29;100.00
52693;BME280;68218;51.012;-1.648;2023-07-29T06:34:49;99616.56;;;16.17;100.00
52693;BME280;68218;51.012;-1.648;2023-07-29T06:37:17;99622.50;;;16.27;100.00
52693;BME280;68218;51.012;-1.648;2023-07-29T06:39:42;99624.56;;;16.13;100.00
52693;BME280;68218;51.012;-1.648;2023-07-29T06:42:07;99634.44;;;16.09;100.00
52693;BME280;68218;51.012;-1.648;2023-07-29T06:44:33;99635.91;;;16.15;100.00
52693;BME280;68218;51.012;-1.648;2023-07-29T06:46:58;99618.19;;;16.26;100.00
52693;BME280;68218;51.012;-1.648;2023-07-29T06:49:23;99632.56;;;16.18;100.00
52693;BME280;68218;51.012;-1.648;2023-07-29T06:51:49;99633.69;;;16.26;100.00
52693;BME280;68218;51.012;-1.648;2023-07-29T06:54:16;99643.03;;;16.34;100.00
52693;BME280;68218;51.012;-1.648;2023-07-29T06:56:41;99640.34;;;16.51;100.00
52693;BME280;68218;51.012;-1.648;2023-07-29T06:59:07;99633.34;;;16.67;100.00
52693;BME280;68218;51.012;-1.648;2023-07-29T07:01:33;99624.06;;;16.86;100.00
52693;BME280;68218;51.012;-1.648;2023-07-29T07:03:59;99638.69;;;16.99;98.50
52693;BME280;68218;51.012;-1.648;2023-07-29T07:06:24;99635.47;;;17.06;96.38
52693;BME280;68218;51.012;-1.648;2023-07-29T07:08:50;99639.47;;;17.17;95.34
52693;BME280;68218;51.012;-1.648;2023-07-29T07:11:16;99630.66;;;17.20;92.30
52693;BME280;68218;51.012;-1.648;2023-07-29T07:13:41;99635.63;;;17.18;92.34
52693;BME280;68218;51.012;-1.648;2023-07-29T07:16:07;99645.09;;;17.20;92.14
52693;BME280;68218;51.012;-1.648;2023-07-29T07:18:32;99637.06;;;17.33;91.49
52693;BME280;68218;51.012;-1.648;2023-07-29T07:20:57;99636.72;;;17.43;92.80
52693;BME280;68218;51.012;-1.648;2023-07-29T07:23:23;99633.34;;;17.37;89.97
52693;BME280;68218;51.012;-1.648;2023-07-29T07:25:48;99631.03;;;17.74;89.48
52693;BME280;68218;51.012;-1.648;2023-07-29T07:28:13;99630.13;;;17.53;88.69
52693;BME280;68218;51.012;-1.648;2023-07-29T07:30:40;99636.38;;;17.53;86.63
52693;BME280;68218;51.012;-1.648;2023-07-29T07:33:06;99630.88;;;17.71;88.51
52693;BME280;68218;51.012;-1.648;2023-07-29T07:35:32;99638.78;;;18.11;88.15
52693;BME280;68218;51.012;-1.648;2023-07-29T07:37:57;99633.56;;;18.57;84.53
52693;BME280;68218;51.012;-1.648;2023-07-29T07:40:24;99637.00;;;18.45;82.98
52693;BME280;68218;51.012;-1.648;2023-07-29T07:42:49;99634.97;;;18.93;83.49
52693;BME280;68218;51.012;-1.648;2023-07-29T07:45:15;99639.09;;;18.99;82.88
52693;BME280;68218;51.012;-1.648;2023-07-29T07:47:40;99638.50;;;19.14;80.96
52693;BME280;68218;51.012;-1.648;2023-07-29T07:50:06;99640.16;;;19.06;83.99
52693;BME280;68218;51.012;-1.648;2023-07-29T07:52:31;99639.91;;;19.33;83.40
52693;BME280;68218;51.012;-1.648;2023-07-29T07:54:56;99652.38;;;19.09;83.17
52693;BME280;68218;51.012;-1.648;2023-07-29T07:57:22;99644.56;;;19.20;79.30
52693;BME280;68218;51.012;-1.648;2023-07-29T07:59:47;99651.56;;;18.87;80.41
52693;BME280;68218;51.012;-1.648;2023-07-29T08:02:13;99657.75;;;18.46;80.76
52693;BME280;68218;51.012;-1.648;2023-07-29T08:04:38;99648.28;;;18.64;84.18
52693;BME280;68218;51.012;-1.648;2023-07-29T08:07:04;99662.00;;;18.56;82.49
52693;BME280;68218;51.012;-1.648;2023-07-29T08:09:29;99660.59;;;18.49;83.39
52693;BME280;68218;51.012;-1.648;2023-07-29T08:11:55;99661.63;;;18.36;83.87
52693;BME280;68218;51.012;-1.648;2023-07-29T08:14:20;99667.25;;;18.01;82.39
52693;BME280;68218;51.012;-1.648;2023-07-29T08:16:46;99666.31;;;17.88;86.76
52693;BME280;68218;51.012;-1.648;2023-07-29T08:19:11;99672.31;;;17.55;85.42
52693;BME280;68218;51.012;-1.648;2023-07-29T08:21:36;99672.47;;;17.50;84.56
52693;BME280;68218;51.012;-1.648;2023-07-29T08:24:02;99666.69;;;17.52;81.36
52693;BME280;68218;51.012;-1.648;2023-07-29T08:26:28;99677.56;;;17.78;83.24
52693;BME280;68218;51.012;-1.648;2023-07-29T08:28:54;99672.47;;;17.59;81.84
52693;BME280;68218;51.012;-1.648;2023-07-29T08:31:19;99676.47;;;17.53;81.11
52693;BME280;68218;51.012;-1.648;2023-07-29T08:33:45;99657.47;;;18.00;82.04
52693;BME280;68218;51.012;-1.648;2023-07-29T08:36:10;99675.75;;;18.98;78.12
52693;BME280;68218;51.012;-1.648;2023-07-29T08:38:35;99665.63;;;19.19;74.76
52693;BME280;68218;51.012;-1.648;2023-07-29T08:43:31;99660.13;;;19.40;75.50
52693;BME280;68218;51.012;-1.648;2023-07-29T08:45:58;99655.41;;;19.28;73.85
52693;BME280;68218;51.012;-1.648;2023-07-29T08:48:32;99656.06;;;19.80;69.41
52693;BME280;68218;51.012;-1.648;2023-07-29T08:51:03;99660.31;;;19.90;74.04
52693;BME280;68218;51.012;-1.648;2023-07-29T08:53:29;99660.28;;;19.56;71.63
52693;BME280;68218;51.012;-1.648;2023-07-29T08:55:55;99667.59;;;19.52;75.96
52693;BME280;68218;51.012;-1.648;2023-07-29T08:58:21;99660.78;;;19.37;73.67
52693;BME280;68218;51.012;-1.648;2023-07-29T09:00:48;99667.63;;;18.89;72.52
52693;BME280;68218;51.012;-1.648;2023-07-29T09:03:13;99660.16;;;18.98;77.75
52693;BME280;68218;51.012;-1.648;2023-07-29T09:05:39;99655.13;;;18.79;77.57
52693;BME280;68218;51.012;-1.648;2023-07-29T09:08:04;99663.81;;;18.51;74.14
52693;BME280;68218;51.012;-1.648;2023-07-29T09:10:35;99659.13;;;18.52;74.56
52693;BME280;68218;51.012;-1.648;2023-07-29T09:13:00;99661.72;;;18.48;74.82
52693;BME280;68218;51.012;-1.648;2023-07-29T09:15:33;99667.28;;;18.61;79.73
52693;BME280;68218;51.012;-1.648;2023-07-29T09:18:09;99674.00;;;19.35;74.66
52693;BME280;68218;51.012;-1.648;2023-07-29T09:20:34;99672.28;;;19.97;70.42
52693;BME280;68218;51.012;-1.648;2023-07-29T09:23:00;99664.31;;;20.54;72.71
52693;BME280;68218;51.012;-1.648;2023-07-29T09:25:26;99662.31;;;21.04;69.97
52693;BME280;68218;51.012;-1.648;2023-07-29T09:27:52;99662.34;;;21.20;65.67
52693;BME280;68218;51.012;-1.648;2023-07-29T09:30:23;99673.91;;;20.60;66.47
52693;BME280;68218;51.012;-1.648;2023-07-29T09:32:54;99668.53;;;20.39;69.21
52693;BME280;68218;51.012;-1.648;2023-07-29T09:35:20;99664.78;;;20.19;68.17
52693;BME280;68218;51.012;-1.648;2023-07-29T09:37:45;99668.09;;;20.25;64.56
52693;BME280;68218;51.012;-1.648;2023-07-29T09:40:14;99670.03;;;20.49;69.08
52693;BME280;68218;51.012;-1.648;2023-07-29T09:42:47;99661.78;;;19.99;63.25
52693;BME280;68218;51.012;-1.648;2023-07-29T09:45:27;99667.47;;;19.82;65.13
52693;BME280;68218;51.012;-1.648;2023-07-29T09:47:54;99683.03;;;19.48;65.13
52693;BME280;68218;51.012;-1.648;2023-07-29T09:50:29;99672.94;;;19.49;67.27
52693;BME280;68218;51.012;-1.648;2023-07-29T09:52:55;99670.03;;;20.12;65.39
52693;BME280;68218;51.012;-1.648;2023-07-29T09:55:22;99664.66;;;20.65;67.38
52693;BME280;68218;51.012;-1.648;2023-07-29T09:57:56;99664.56;;;21.70;66.52
52693;BME280;68218;51.012;-1.648;2023-07-29T10:00:25;99660.69;;;21.72;59.54
52693;BME280;68218;51.012;-1.648;2023-07-29T10:02:51;99664.41;;;20.94;62.43
52693;BME280;68218;51.012;-1.648;2023-07-29T10:05:18;99658.28;;;21.54;63.73
52693;BME280;68218;51.012;-1.648;2023-07-29T10:07:44;99662.28;;;20.75;61.45
52693;BME280;68218;51.012;-1.648;2023-07-29T10:10:10;99671.88;;;20.45;67.87
52693;BME280;68218;51.012;-1.648;2023-07-29T10:12:37;99683.34;;;20.01;65.72
52693;BME280;68218;51.012;-1.648;2023-07-29T10:15:04;99675.19;;;21.16;66.13
52693;BME280;68218;51.012;-1.648;2023-07-29T10:17:31;99672.81;;;21.42;63.39
52693;BME280;68218;51.012;-1.648;2023-07-29T10:19:58;99662.84;;;21.22;61.15
52693;BME280;68218;51.012;-1.648;2023-07-29T10:22:28;99666.41;;;21.38;63.11
52693;BME280;68218;51.012;-1.648;2023-07-29T10:24:54;99659.94;;;20.90;64.14
52693;BME280;68218;51.012;-1.648;2023-07-29T10:27:23;99675.38;;;20.45;63.56
52693;BME280;68218;51.012;-1.648;2023-07-29T10:29:50;99694.34;;;20.26;67.33
52693;BME280;68218;51.012;-1.648;2023-07-29T10:32:16;99684.16;;;20.01;66.50
52693;BME280;68218;51.012;-1.648;2023-07-29T10:34:42;99685.75;;;20.15;69.94
52693;BME280;68218;51.012;-1.648;2023-07-29T10:37:07;99685.84;;;20.06;65.51
52693;BME280;68218;51.012;-1.648;2023-07-29T10:39:39;99689.69;;;19.80;65.39
52693;BME280;68218;51.012;-1.648;2023-07-29T10:42:06;99694.06;;;19.60;67.82
52693;BME280;68218;51.012;-1.648;2023-07-29T10:47:22;99685.09;;;20.43;68.24
52693;BME280;68218;51.012;-1.648;2023-07-29T10:49:56;99691.59;;;20.38;66.68
52693;BME280;68218;51.012;-1.648;2023-07-29T10:52:52;99693.63;;;20.29;69.28
52693;BME280;68218;51.012;-1.648;2023-07-29T10:57:49;99715.94;;;19.39;67.10
52693;BME280;68218;51.012;-1.648;2023-07-29T11:00:15;99728.78;;;18.97;73.08
52693;BME280;68218;51.012;-1.648;2023-07-29T11:02:41;99731.09;;;18.56;79.46
52693;BME280;68218;51.012;-1.648;2023-07-29T11:05:17;99726.38;;;18.36;82.17
52693;BME280;68218;51.012;-1.648;2023-07-29T11:07:47;99729.50;;;17.99;81.53
52693;BME280;68218;51.012;-1.648;2023-07-29T11:10:14;99728.47;;;18.30;84.31
52693;BME280;68218;51.012;-1.648;2023-07-29T11:15:21;99736.38;;;18.14;78.61
52693;BME280;68218;51.012;-1.648;2023-07-29T11:17:57;99739.00;;;18.02;80.14
52693;BME280;68218;51.012;-1.648;2023-07-29T11:20:27;99741.91;;;17.88;73.71
52693;BME280;68218;51.012;-1.648;2023-07-29T11:22:54;99739.28;;;18.09;79.97
52693;BME280;68218;51.012;-1.648;2023-07-29T11:25:21;99733.88;;;18.77;77.24
52693;BME280;68218;51.012;-1.648;2023-07-29T11:27:48;99740.22;;;19.20;75.09
52693;BME280;68218;51.012;-1.648;2023-07-29T11:30:15;99735.09;;;19.60;73.84
52693;BME280;68218;51.012;-1.648;2023-07-29T11:32:42;99728.94;;;20.55;70.47
52693;BME280;68218;51.012;-1.648;2023-07-29T11:35:13;99736.69;;;20.53;69.70
52693;BME280;68218;51.012;-1.648;2023-07-29T11:37:40;99734.47;;;20.09;71.47
52693;BME280;68218;51.012;-1.648;2023-07-29T11:40:07;99737.19;;;20.67;64.61
52693;BME280;68218;51.012;-1.648;2023-07-29T11:42:36;99731.09;;;21.51;62.86
52693;BME280;68218;51.012;-1.648;2023-07-29T11:45:03;99726.53;;;22.00;65.68
52693;BME280;68218;51.012;-1.648;2023-07-29T11:47:30;99722.22;;;22.31;65.06
52693;BME280;68218;51.012;-1.648;2023-07-29T11:49:58;99719.13;;;22.32;59.09
52693;BME280;68218;51.012;-1.648;2023-07-29T11:52:25;99723.81;;;22.99;55.50
52693;BME280;68218;51.012;-1.648;2023-07-29T11:54:51;99719.53;;;23.37;55.43
52693;BME280;68218;51.012;-1.648;2023-07-29T11:57:17;99725.97;;;24.03;54.94
52693;BME280;68218;51.012;-1.648;2023-07-29T11:59:43;99725.91;;;24.00;53.97
52693;BME280;68218;51.012;-1.648;2023-07-29T12:02:13;99720.69;;;24.41;55.80
52693;BME280;68218;51.012;-1.648;2023-07-29T12:04:41;99720.03;;;24.24;48.63
52693;BME280;68218;51.012;-1.648;2023-07-29T12:07:07;99714.31;;;23.90;52.04
52693;BME280;68218;51.012;-1.648;2023-07-29T12:09:34;99706.34;;;23.66;50.20
52693;BME280;68218;51.012;-1.648;2023-07-29T12:12:00;99713.22;;;23.95;51.84
52693;BME280;68218;51.012;-1.648;2023-07-29T12:14:28;99723.53;;;23.79;50.30
52693;BME280;68218;51.012;-1.648;2023-07-29T12:16:53;99713.13;;;23.29;51.48
52693;BME280;68218;51.012;-1.648;2023-07-29T12:19:19;99723.88;;;23.97;53.69
52693;BME280;68218;51.012;-1.648;2023-07-29T12:21:45;99724.19;;;24.38;52.71
52693;BME280;68218;51.012;-1.648;2023-07-29T12:24:13;99710.31;;;25.11;47.90
52693;BME280;68218;51.012;-1.648;2023-07-29T12:26:40;99711.03;;;24.27;51.79
52693;BME280;68218;51.012;-1.648;2023-07-29T12:29:16;99707.16;;;24.55;50.90
52693;BME280;68218;51.012;-1.648;2023-07-29T12:31:42;99707.22;;;24.59;50.10
52693;BME280;68218;51.012;-1.648;2023-07-29T12:34:08;99713.59;;;23.74;50.60
52693;BME280;68218;51.012;-1.648;2023-07-29T12:36:42;99701.34;;;24.37;50.77
52693;BME280;68218;51.012;-1.648;2023-07-29T12:39:19;99695.44;;;24.62;46.91
52693;BME280;68218;51.012;-1.648;2023-07-29T12:41:45;99695.16;;;24.97;47.09
52693;BME280;68218;51.012;-1.648;2023-07-29T12:44:10;99697.94;;;24.71;47.63
52693;BME280;68218;51.012;-1.648;2023-07-29T12:46:36;99700.59;;;24.90;44.07
52693;BME280;68218;51.012;-1.648;2023-07-29T12:49:01;99692.84;;;24.73;48.24
52693;BME280;68218;51.012;-1.648;2023-07-29T12:51:27;99707.59;;;24.84;45.52
52693;BME280;68218;51.012;-1.648;2023-07-29T12:53:53;99703.47;;;24.47;47.61
52693;BME280;68218;51.012;-1.648;2023-07-29T12:56:19;99709.59;;;23.71;52.49
52693;BME280;68218;51.012;-1.648;2023-07-29T12:58:44;99715.97;;;22.81;51.53
52693;BME280;68218;51.012;-1.648;2023-07-29T13:01:10;99719.94;;;22.84;55.79